• vieta
  • image
  • image
  • image
mod_vvisit_countermod_vvisit_countermod_vvisit_countermod_vvisit_countermod_vvisit_countermod_vvisit_counter
mod_vvisit_counterŠiandien284
mod_vvisit_counterVakar592
mod_vvisit_counterŠią savaitę3147
mod_vvisit_counterPraėjusią savaitę4997
mod_vvisit_counterŠį mėnesį14053
mod_vvisit_counterPraėjusį mėnesį19158
mod_vvisit_counterViso758103

Mes turime: 73 svečius online
Jūsų IP: 54.81.110.114
 , 
Šiandien: Spa 21, 2017
Oro uostas / Naujienos / 2015 Sausis

2015 Sausis

Š.m. sausio 20 d. tarptautiniame Šiaulių oro uoste apsilankė Šiaulių universiteto Verslo administravimo studijų programos logistikos valdymo specializacijos 4 kurso studentai lydimi Vadybos katedros dėstytojos lekt. Inetos Beniušienės. Studentai stebėjo Izraelio aviakompanijos „CAL Cargo Airlines“ orlaivio Boeing 747-400 aptarnavimo procesą bei iš arčiau susipažino su antžeminių paslaugų aptarnavimo specifika.

 

Studentų atsiliepimus ir įspūdžius skaitykite čia:

http://www.su.lt/smf/naujienos/16053-tarptautiniame-iauli-oro-uoste

Šiandien

Šeštadienis, 21 Spalis 2017

Orų prognozė

Šiauliai °C
   

Orų prognozė aviacijai

[source: ADDS]
METAR
EYSA 210450Z 07007KT 9999 SCT040 OVC046 06/05 Q1019 BLU NOSIG =
TAF
TAF EYSA 210208Z 2103/2112 08010KT 7000 BKN015 TEMPO 2103/2106 4000 SHRA BKN010 BKN015CB TEMPO 2106/2109 09020KT 3000 SHRA BR BKN005 BKN015CB =
SR / SS: 05:10 / 15:14 UTC (EYSA 2017-10-21)

Paieška

Lankytojai

Mes turime 72 svečius online

tic logo lt